sensor_id;sensor_type;location;lat;lon;timestamp;P1;durP1;ratioP1;P2;durP2;ratioP2
6193;SDS011;3130;41.564;23.280;2023-12-14T00:01:46;22.00;;;12.33;;
6193;SDS011;3130;41.564;23.280;2023-12-14T00:04:14;14.50;;;9.40;;
6193;SDS011;3130;41.564;23.280;2023-12-14T00:06:42;16.90;;;10.50;;
6193;SDS011;3130;41.564;23.280;2023-12-14T00:09:09;11.57;;;7.33;;
6193;SDS011;3130;41.564;23.280;2023-12-14T00:11:37;10.37;;;7.47;;
6193;SDS011;3130;41.564;23.280;2023-12-14T00:14:04;8.90;;;6.70;;
6193;SDS011;3130;41.564;23.280;2023-12-14T00:16:31;12.53;;;8.33;;
6193;SDS011;3130;41.564;23.280;2023-12-14T00:18:59;14.30;;;7.43;;
6193;SDS011;3130;41.564;23.280;2023-12-14T00:21:26;13.50;;;6.73;;
6193;SDS011;3130;41.564;23.280;2023-12-14T00:23:55;12.23;;;8.10;;
6193;SDS011;3130;41.564;23.280;2023-12-14T00:26:22;13.13;;;8.83;;
6193;SDS011;3130;41.564;23.280;2023-12-14T00:28:50;11.27;;;7.60;;
6193;SDS011;3130;41.564;23.280;2023-12-14T00:31:16;10.17;;;6.80;;
6193;SDS011;3130;41.564;23.280;2023-12-14T00:33:43;13.23;;;9.30;;
6193;SDS011;3130;41.564;23.280;2023-12-14T00:36:17;13.17;;;7.73;;
6193;SDS011;3130;41.564;23.280;2023-12-14T00:38:43;11.67;;;7.83;;
6193;SDS011;3130;41.564;23.280;2023-12-14T00:41:12;9.43;;;7.57;;
6193;SDS011;3130;41.564;23.280;2023-12-14T00:43:39;13.40;;;7.87;;
6193;SDS011;3130;41.564;23.280;2023-12-14T00:46:06;11.90;;;7.83;;
6193;SDS011;3130;41.564;23.280;2023-12-14T00:48:34;14.50;;;8.73;;
6193;SDS011;3130;41.564;23.280;2023-12-14T00:51:01;12.33;;;8.23;;
6193;SDS011;3130;41.564;23.280;2023-12-14T00:53:29;13.63;;;7.20;;
6193;SDS011;3130;41.564;23.280;2023-12-14T00:55:56;10.37;;;6.90;;
6193;SDS011;3130;41.564;23.280;2023-12-14T00:58:24;13.60;;;7.90;;
6193;SDS011;3130;41.564;23.280;2023-12-14T01:00:51;10.97;;;6.83;;
6193;SDS011;3130;41.564;23.280;2023-12-14T01:03:19;13.03;;;7.87;;
6193;SDS011;3130;41.564;23.280;2023-12-14T01:05:47;9.40;;;7.27;;
6193;SDS011;3130;41.564;23.280;2023-12-14T01:08:14;11.37;;;7.90;;
6193;SDS011;3130;41.564;23.280;2023-12-14T01:10:41;10.97;;;7.37;;
6193;SDS011;3130;41.564;23.280;2023-12-14T01:13:09;12.20;;;7.53;;
6193;SDS011;3130;41.564;23.280;2023-12-14T01:15:37;10.97;;;7.13;;
6193;SDS011;3130;41.564;23.280;2023-12-14T01:18:04;11.40;;;8.07;;
6193;SDS011;3130;41.564;23.280;2023-12-14T01:20:31;13.47;;;8.00;;
6193;SDS011;3130;41.564;23.280;2023-12-14T01:22:58;9.50;;;7.00;;
6193;SDS011;3130;41.564;23.280;2023-12-14T01:25:25;11.07;;;7.90;;
6193;SDS011;3130;41.564;23.280;2023-12-14T01:27:52;10.63;;;7.13;;
6193;SDS011;3130;41.564;23.280;2023-12-14T01:30:18;12.90;;;7.90;;
6193;SDS011;3130;41.564;23.280;2023-12-14T01:32:47;13.70;;;8.60;;
6193;SDS011;3130;41.564;23.280;2023-12-14T01:35:14;14.53;;;9.20;;
6193;SDS011;3130;41.564;23.280;2023-12-14T01:37:40;12.17;;;8.83;;
6193;SDS011;3130;41.564;23.280;2023-12-14T01:40:08;17.03;;;10.03;;
6193;SDS011;3130;41.564;23.280;2023-12-14T01:42:35;14.50;;;10.67;;
6193;SDS011;3130;41.564;23.280;2023-12-14T01:45:01;13.03;;;8.30;;
6193;SDS011;3130;41.564;23.280;2023-12-14T01:47:29;11.97;;;7.70;;
6193;SDS011;3130;41.564;23.280;2023-12-14T01:49:57;13.87;;;7.67;;
6193;SDS011;3130;41.564;23.280;2023-12-14T01:52:24;11.97;;;8.13;;
6193;SDS011;3130;41.564;23.280;2023-12-14T01:54:51;11.03;;;8.27;;
6193;SDS011;3130;41.564;23.280;2023-12-14T01:57:17;11.57;;;7.53;;
6193;SDS011;3130;41.564;23.280;2023-12-14T01:59:44;13.03;;;8.77;;
6193;SDS011;3130;41.564;23.280;2023-12-14T02:02:11;10.73;;;7.70;;
6193;SDS011;3130;41.564;23.280;2023-12-14T02:04:38;14.67;;;9.00;;
6193;SDS011;3130;41.564;23.280;2023-12-14T02:07:06;9.53;;;7.80;;
6193;SDS011;3130;41.564;23.280;2023-12-14T02:09:33;12.30;;;7.93;;
6193;SDS011;3130;41.564;23.280;2023-12-14T02:12:00;10.83;;;6.87;;
6193;SDS011;3130;41.564;23.280;2023-12-14T02:14:27;11.40;;;8.37;;
6193;SDS011;3130;41.564;23.280;2023-12-14T02:16:53;10.90;;;7.70;;
6193;SDS011;3130;41.564;23.280;2023-12-14T02:19:20;15.30;;;8.43;;
6193;SDS011;3130;41.564;23.280;2023-12-14T02:21:47;15.33;;;8.20;;
6193;SDS011;3130;41.564;23.280;2023-12-14T02:24:15;14.67;;;8.90;;
6193;SDS011;3130;41.564;23.280;2023-12-14T02:26:42;12.13;;;8.00;;
6193;SDS011;3130;41.564;23.280;2023-12-14T02:29:09;12.13;;;8.83;;
6193;SDS011;3130;41.564;23.280;2023-12-14T02:31:36;13.73;;;9.30;;
6193;SDS011;3130;41.564;23.280;2023-12-14T02:34:03;14.87;;;8.73;;
6193;SDS011;3130;41.564;23.280;2023-12-14T02:36:30;12.73;;;8.70;;
6193;SDS011;3130;41.564;23.280;2023-12-14T02:38:56;11.03;;;7.93;;
6193;SDS011;3130;41.564;23.280;2023-12-14T02:41:25;11.63;;;8.50;;
6193;SDS011;3130;41.564;23.280;2023-12-14T02:43:52;13.20;;;8.43;;
6193;SDS011;3130;41.564;23.280;2023-12-14T02:46:18;11.53;;;8.73;;
6193;SDS011;3130;41.564;23.280;2023-12-14T02:48:45;11.23;;;8.60;;
6193;SDS011;3130;41.564;23.280;2023-12-14T02:51:12;14.10;;;9.27;;
6193;SDS011;3130;41.564;23.280;2023-12-14T02:53:41;16.23;;;10.07;;
6193;SDS011;3130;41.564;23.280;2023-12-14T02:56:09;14.87;;;9.60;;
6193;SDS011;3130;41.564;23.280;2023-12-14T02:58:37;15.40;;;8.97;;
6193;SDS011;3130;41.564;23.280;2023-12-14T03:01:04;15.47;;;9.37;;
6193;SDS011;3130;41.564;23.280;2023-12-14T03:03:31;22.33;;;12.63;;
6193;SDS011;3130;41.564;23.280;2023-12-14T03:05:58;36.00;;;22.13;;
6193;SDS011;3130;41.564;23.280;2023-12-14T03:08:25;40.27;;;22.87;;
6193;SDS011;3130;41.564;23.280;2023-12-14T03:10:52;38.83;;;25.37;;
6193;SDS011;3130;41.564;23.280;2023-12-14T03:13:18;35.03;;;21.93;;
6193;SDS011;3130;41.564;23.280;2023-12-14T03:15:47;30.30;;;22.00;;
6193;SDS011;3130;41.564;23.280;2023-12-14T03:18:14;29.17;;;21.00;;
6193;SDS011;3130;41.564;23.280;2023-12-14T03:20:41;38.37;;;25.73;;
6193;SDS011;3130;41.564;23.280;2023-12-14T03:23:08;32.40;;;21.70;;
6193;SDS011;3130;41.564;23.280;2023-12-14T03:25:34;29.60;;;20.33;;
6193;SDS011;3130;41.564;23.280;2023-12-14T03:28:01;28.80;;;20.10;;
6193;SDS011;3130;41.564;23.280;2023-12-14T03:30:28;30.53;;;21.13;;
6193;SDS011;3130;41.564;23.280;2023-12-14T03:32:56;31.97;;;20.30;;
6193;SDS011;3130;41.564;23.280;2023-12-14T03:35:23;31.43;;;19.40;;
6193;SDS011;3130;41.564;23.280;2023-12-14T03:37:51;32.83;;;19.37;;
6193;SDS011;3130;41.564;23.280;2023-12-14T03:40:20;30.53;;;15.10;;
6193;SDS011;3130;41.564;23.280;2023-12-14T03:42:48;16.07;;;11.13;;
6193;SDS011;3130;41.564;23.280;2023-12-14T03:45:16;13.23;;;9.33;;
6193;SDS011;3130;41.564;23.280;2023-12-14T03:47:42;16.80;;;11.93;;
6193;SDS011;3130;41.564;23.280;2023-12-14T03:50:12;14.40;;;9.37;;
6193;SDS011;3130;41.564;23.280;2023-12-14T03:52:38;14.20;;;9.63;;
6193;SDS011;3130;41.564;23.280;2023-12-14T03:55:06;11.97;;;8.50;;
6193;SDS011;3130;41.564;23.280;2023-12-14T03:57:33;15.73;;;8.87;;
6193;SDS011;3130;41.564;23.280;2023-12-14T03:59:59;12.10;;;8.30;;
6193;SDS011;3130;41.564;23.280;2023-12-14T04:02:26;12.47;;;8.97;;
6193;SDS011;3130;41.564;23.280;2023-12-14T04:04:53;14.53;;;9.23;;
6193;SDS011;3130;41.564;23.280;2023-12-14T04:07:21;15.07;;;9.67;;
6193;SDS011;3130;41.564;23.280;2023-12-14T04:09:48;12.57;;;8.87;;
6193;SDS011;3130;41.564;23.280;2023-12-14T04:12:15;14.00;;;9.33;;
6193;SDS011;3130;41.564;23.280;2023-12-14T04:14:42;12.60;;;9.20;;
6193;SDS011;3130;41.564;23.280;2023-12-14T04:17:10;14.57;;;9.43;;
6193;SDS011;3130;41.564;23.280;2023-12-14T04:19:37;15.10;;;9.57;;
6193;SDS011;3130;41.564;23.280;2023-12-14T04:22:04;16.30;;;9.03;;
6193;SDS011;3130;41.564;23.280;2023-12-14T04:24:33;11.70;;;9.50;;
6193;SDS011;3130;41.564;23.280;2023-12-14T04:27:00;14.33;;;9.33;;
6193;SDS011;3130;41.564;23.280;2023-12-14T04:29:27;11.63;;;8.53;;
6193;SDS011;3130;41.564;23.280;2023-12-14T04:31:54;13.80;;;10.00;;
6193;SDS011;3130;41.564;23.280;2023-12-14T04:34:21;13.57;;;10.27;;
6193;SDS011;3130;41.564;23.280;2023-12-14T04:36:49;13.10;;;9.20;;
6193;SDS011;3130;41.564;23.280;2023-12-14T04:39:16;14.03;;;9.27;;
6193;SDS011;3130;41.564;23.280;2023-12-14T04:41:45;14.53;;;9.83;;
6193;SDS011;3130;41.564;23.280;2023-12-14T04:44:12;14.23;;;9.07;;
6193;SDS011;3130;41.564;23.280;2023-12-14T04:46:39;12.80;;;9.40;;
6193;SDS011;3130;41.564;23.280;2023-12-14T04:49:05;16.70;;;10.70;;
6193;SDS011;3130;41.564;23.280;2023-12-14T04:51:33;13.50;;;9.60;;
6193;SDS011;3130;41.564;23.280;2023-12-14T04:54:00;20.07;;;10.97;;
6193;SDS011;3130;41.564;23.280;2023-12-14T04:56:27;13.70;;;10.07;;
6193;SDS011;3130;41.564;23.280;2023-12-14T04:58:56;14.77;;;10.17;;
6193;SDS011;3130;41.564;23.280;2023-12-14T05:01:23;13.50;;;9.80;;
6193;SDS011;3130;41.564;23.280;2023-12-14T05:03:51;11.60;;;8.93;;
6193;SDS011;3130;41.564;23.280;2023-12-14T05:06:19;15.37;;;11.43;;
6193;SDS011;3130;41.564;23.280;2023-12-14T05:08:46;12.97;;;9.93;;
6193;SDS011;3130;41.564;23.280;2023-12-14T05:11:13;16.10;;;10.90;;
6193;SDS011;3130;41.564;23.280;2023-12-14T05:13:41;18.33;;;11.60;;
6193;SDS011;3130;41.564;23.280;2023-12-14T05:16:13;14.23;;;9.73;;
6193;SDS011;3130;41.564;23.280;2023-12-14T05:18:41;17.50;;;11.43;;
6193;SDS011;3130;41.564;23.280;2023-12-14T05:21:09;18.10;;;11.03;;
6193;SDS011;3130;41.564;23.280;2023-12-14T05:23:36;16.70;;;10.00;;
6193;SDS011;3130;41.564;23.280;2023-12-14T05:26:04;17.67;;;11.00;;
6193;SDS011;3130;41.564;23.280;2023-12-14T05:28:32;14.63;;;10.23;;
6193;SDS011;3130;41.564;23.280;2023-12-14T05:31:00;16.90;;;11.27;;
6193;SDS011;3130;41.564;23.280;2023-12-14T05:33:29;14.53;;;9.87;;
6193;SDS011;3130;41.564;23.280;2023-12-14T05:35:59;19.03;;;11.53;;
6193;SDS011;3130;41.564;23.280;2023-12-14T05:38:26;16.43;;;11.90;;
6193;SDS011;3130;41.564;23.280;2023-12-14T05:40:53;19.90;;;12.67;;
6193;SDS011;3130;41.564;23.280;2023-12-14T05:43:20;20.17;;;13.80;;
6193;SDS011;3130;41.564;23.280;2023-12-14T05:45:47;17.93;;;11.20;;
6193;SDS011;3130;41.564;23.280;2023-12-14T05:48:15;15.20;;;9.73;;
6193;SDS011;3130;41.564;23.280;2023-12-14T05:50:43;19.23;;;13.73;;
6193;SDS011;3130;41.564;23.280;2023-12-14T05:53:11;18.17;;;12.67;;
6193;SDS011;3130;41.564;23.280;2023-12-14T05:55:39;13.60;;;11.23;;
6193;SDS011;3130;41.564;23.280;2023-12-14T05:58:06;20.17;;;12.13;;
6193;SDS011;3130;41.564;23.280;2023-12-14T06:00:34;17.77;;;12.63;;
6193;SDS011;3130;41.564;23.280;2023-12-14T06:03:02;18.07;;;12.37;;
6193;SDS011;3130;41.564;23.280;2023-12-14T06:05:30;16.07;;;11.47;;
6193;SDS011;3130;41.564;23.280;2023-12-14T06:07:59;17.97;;;11.53;;
6193;SDS011;3130;41.564;23.280;2023-12-14T06:10:26;14.00;;;9.87;;
6193;SDS011;3130;41.564;23.280;2023-12-14T06:12:54;15.43;;;11.47;;
6193;SDS011;3130;41.564;23.280;2023-12-14T06:15:21;18.50;;;13.23;;
6193;SDS011;3130;41.564;23.280;2023-12-14T06:17:52;26.03;;;18.27;;
6193;SDS011;3130;41.564;23.280;2023-12-14T06:20:23;32.10;;;23.70;;
6193;SDS011;3130;41.564;23.280;2023-12-14T06:22:52;28.60;;;17.33;;
6193;SDS011;3130;41.564;23.280;2023-12-14T06:25:26;27.37;;;19.57;;
6193;SDS011;3130;41.564;23.280;2023-12-14T06:28:06;25.33;;;17.37;;
6193;SDS011;3130;41.564;23.280;2023-12-14T06:30:36;17.63;;;12.23;;
6193;SDS011;3130;41.564;23.280;2023-12-14T06:33:05;17.63;;;10.80;;
6193;SDS011;3130;41.564;23.280;2023-12-14T06:35:35;17.07;;;11.93;;
6193;SDS011;3130;41.564;23.280;2023-12-14T06:38:02;19.33;;;12.97;;
6193;SDS011;3130;41.564;23.280;2023-12-14T06:40:39;21.73;;;13.27;;
6193;SDS011;3130;41.564;23.280;2023-12-14T06:43:06;18.83;;;12.07;;
6193;SDS011;3130;41.564;23.280;2023-12-14T06:45:42;18.30;;;11.30;;
6193;SDS011;3130;41.564;23.280;2023-12-14T06:48:11;16.37;;;10.73;;
6193;SDS011;3130;41.564;23.280;2023-12-14T06:50:39;17.00;;;11.67;;
6193;SDS011;3130;41.564;23.280;2023-12-14T06:53:09;18.40;;;12.10;;
6193;SDS011;3130;41.564;23.280;2023-12-14T06:55:39;15.53;;;10.40;;
6193;SDS011;3130;41.564;23.280;2023-12-14T06:58:09;22.20;;;13.10;;
6193;SDS011;3130;41.564;23.280;2023-12-14T07:00:37;33.97;;;24.33;;
6193;SDS011;3130;41.564;23.280;2023-12-14T07:03:04;76.97;;;52.73;;
6193;SDS011;3130;41.564;23.280;2023-12-14T07:05:31;85.03;;;53.47;;
6193;SDS011;3130;41.564;23.280;2023-12-14T07:07:59;73.23;;;51.90;;
6193;SDS011;3130;41.564;23.280;2023-12-14T07:10:26;77.70;;;52.27;;
6193;SDS011;3130;41.564;23.280;2023-12-14T07:12:55;73.13;;;47.90;;
6193;SDS011;3130;41.564;23.280;2023-12-14T07:15:22;76.00;;;46.33;;
6193;SDS011;3130;41.564;23.280;2023-12-14T07:17:50;63.33;;;43.30;;
6193;SDS011;3130;41.564;23.280;2023-12-14T07:20:18;67.10;;;41.43;;
6193;SDS011;3130;41.564;23.280;2023-12-14T07:22:46;61.17;;;43.60;;
6193;SDS011;3130;41.564;23.280;2023-12-14T07:25:13;65.77;;;43.43;;
6193;SDS011;3130;41.564;23.280;2023-12-14T07:27:41;70.40;;;48.17;;
6193;SDS011;3130;41.564;23.280;2023-12-14T07:30:10;66.57;;;44.30;;
6193;SDS011;3130;41.564;23.280;2023-12-14T07:32:38;74.27;;;47.47;;
6193;SDS011;3130;41.564;23.280;2023-12-14T07:35:06;73.87;;;46.33;;
6193;SDS011;3130;41.564;23.280;2023-12-14T07:37:34;72.57;;;47.80;;
6193;SDS011;3130;41.564;23.280;2023-12-14T07:40:01;74.30;;;49.90;;
6193;SDS011;3130;41.564;23.280;2023-12-14T07:42:29;80.37;;;50.77;;
6193;SDS011;3130;41.564;23.280;2023-12-14T07:44:56;54.70;;;38.10;;
6193;SDS011;3130;41.564;23.280;2023-12-14T07:47:26;51.90;;;37.33;;
6193;SDS011;3130;41.564;23.280;2023-12-14T07:49:53;57.70;;;39.77;;
6193;SDS011;3130;41.564;23.280;2023-12-14T07:52:21;60.70;;;41.80;;
6193;SDS011;3130;41.564;23.280;2023-12-14T07:54:48;66.80;;;42.87;;
6193;SDS011;3130;41.564;23.280;2023-12-14T07:57:15;56.63;;;36.47;;
6193;SDS011;3130;41.564;23.280;2023-12-14T07:59:43;49.33;;;34.17;;
6193;SDS011;3130;41.564;23.280;2023-12-14T08:02:11;41.07;;;29.90;;
6193;SDS011;3130;41.564;23.280;2023-12-14T08:04:40;41.00;;;28.33;;
6193;SDS011;3130;41.564;23.280;2023-12-14T08:07:08;40.60;;;26.87;;
6193;SDS011;3130;41.564;23.280;2023-12-14T08:09:35;40.33;;;27.17;;
6193;SDS011;3130;41.564;23.280;2023-12-14T08:12:02;36.90;;;27.83;;
6193;SDS011;3130;41.564;23.280;2023-12-14T08:14:31;39.50;;;27.83;;
6193;SDS011;3130;41.564;23.280;2023-12-14T08:16:59;37.03;;;27.17;;
6193;SDS011;3130;41.564;23.280;2023-12-14T08:19:26;41.87;;;27.97;;
6193;SDS011;3130;41.564;23.280;2023-12-14T08:21:55;43.90;;;31.07;;
6193;SDS011;3130;41.564;23.280;2023-12-14T08:24:22;46.23;;;32.40;;
6193;SDS011;3130;41.564;23.280;2023-12-14T08:26:50;40.77;;;30.13;;
6193;SDS011;3130;41.564;23.280;2023-12-14T08:29:17;53.90;;;40.43;;
6193;SDS011;3130;41.564;23.280;2023-12-14T08:31:44;45.50;;;31.87;;
6193;SDS011;3130;41.564;23.280;2023-12-14T08:34:11;43.23;;;31.20;;
6193;SDS011;3130;41.564;23.280;2023-12-14T08:36:39;43.77;;;28.87;;
6193;SDS011;3130;41.564;23.280;2023-12-14T08:39:08;37.60;;;24.83;;
6193;SDS011;3130;41.564;23.280;2023-12-14T08:41:35;46.63;;;30.77;;
6193;SDS011;3130;41.564;23.280;2023-12-14T08:44:03;47.13;;;33.87;;
6193;SDS011;3130;41.564;23.280;2023-12-14T08:46:38;48.23;;;31.40;;
6193;SDS011;3130;41.564;23.280;2023-12-14T08:49:05;44.60;;;31.50;;
6193;SDS011;3130;41.564;23.280;2023-12-14T08:51:32;50.67;;;32.00;;
6193;SDS011;3130;41.564;23.280;2023-12-14T08:54:00;50.93;;;33.77;;
6193;SDS011;3130;41.564;23.280;2023-12-14T08:56:29;43.17;;;32.53;;
6193;SDS011;3130;41.564;23.280;2023-12-14T08:58:56;47.20;;;30.40;;
6193;SDS011;3130;41.564;23.280;2023-12-14T09:01:24;39.97;;;28.50;;
6193;SDS011;3130;41.564;23.280;2023-12-14T09:03:52;38.33;;;27.57;;
6193;SDS011;3130;41.564;23.280;2023-12-14T09:06:19;37.07;;;25.37;;
6193;SDS011;3130;41.564;23.280;2023-12-14T09:08:47;35.23;;;25.90;;
6193;SDS011;3130;41.564;23.280;2023-12-14T09:11:14;42.30;;;26.90;;
6193;SDS011;3130;41.564;23.280;2023-12-14T09:13:43;43.00;;;30.33;;
6193;SDS011;3130;41.564;23.280;2023-12-14T09:16:10;47.93;;;30.50;;
6193;SDS011;3130;41.564;23.280;2023-12-14T09:18:38;43.43;;;26.40;;
6193;SDS011;3130;41.564;23.280;2023-12-14T09:21:05;33.90;;;22.00;;
6193;SDS011;3130;41.564;23.280;2023-12-14T09:23:33;29.53;;;19.43;;
6193;SDS011;3130;41.564;23.280;2023-12-14T09:26:00;28.73;;;19.60;;
6193;SDS011;3130;41.564;23.280;2023-12-14T09:28:27;28.50;;;19.07;;
6193;SDS011;3130;41.564;23.280;2023-12-14T09:30:56;27.57;;;17.57;;
6193;SDS011;3130;41.564;23.280;2023-12-14T09:33:23;29.50;;;17.60;;
6193;SDS011;3130;41.564;23.280;2023-12-14T09:35:51;24.43;;;18.40;;
6193;SDS011;3130;41.564;23.280;2023-12-14T09:38:18;27.00;;;19.33;;
6193;SDS011;3130;41.564;23.280;2023-12-14T09:40:45;30.57;;;20.70;;
6193;SDS011;3130;41.564;23.280;2023-12-14T09:43:12;27.73;;;19.60;;
6193;SDS011;3130;41.564;23.280;2023-12-14T09:45:40;31.10;;;20.57;;
6193;SDS011;3130;41.564;23.280;2023-12-14T09:48:11;32.10;;;21.80;;
6193;SDS011;3130;41.564;23.280;2023-12-14T09:50:39;27.43;;;19.03;;
6193;SDS011;3130;41.564;23.280;2023-12-14T09:53:07;23.57;;;17.47;;
6193;SDS011;3130;41.564;23.280;2023-12-14T09:55:35;26.63;;;20.07;;
6193;SDS011;3130;41.564;23.280;2023-12-14T09:58:02;24.30;;;16.67;;
6193;SDS011;3130;41.564;23.280;2023-12-14T10:00:32;23.83;;;15.87;;
6193;SDS011;3130;41.564;23.280;2023-12-14T10:41:18;13.60;;;10.90;;
6193;SDS011;3130;41.564;23.280;2023-12-14T10:43:47;18.17;;;11.27;;
6193;SDS011;3130;41.564;23.280;2023-12-14T10:46:16;16.40;;;12.47;;
6193;SDS011;3130;41.564;23.280;2023-12-14T10:48:47;18.43;;;12.77;;
6193;SDS011;3130;41.564;23.280;2023-12-14T10:51:16;15.97;;;12.70;;
6193;SDS011;3130;41.564;23.280;2023-12-14T10:53:45;20.20;;;14.37;;
6193;SDS011;3130;41.564;23.280;2023-12-14T10:56:14;25.13;;;17.30;;
6193;SDS011;3130;41.564;23.280;2023-12-14T10:58:48;26.13;;;16.73;;
6193;SDS011;3130;41.564;23.280;2023-12-14T11:01:18;27.30;;;18.93;;
6193;SDS011;3130;41.564;23.280;2023-12-14T11:03:47;25.37;;;17.43;;
6193;SDS011;3130;41.564;23.280;2023-12-14T11:06:25;22.20;;;16.53;;
6193;SDS011;3130;41.564;23.280;2023-12-14T11:08:58;31.23;;;17.77;;
6193;SDS011;3130;41.564;23.280;2023-12-14T11:11:28;25.90;;;19.07;;
6193;SDS011;3130;41.564;23.280;2023-12-14T11:13:57;30.47;;;21.40;;
6193;SDS011;3130;41.564;23.280;2023-12-14T11:16:25;26.97;;;17.70;;
6193;SDS011;3130;41.564;23.280;2023-12-14T11:21:56;24.10;;;17.47;;
6193;SDS011;3130;41.564;23.280;2023-12-14T11:24:37;26.87;;;19.10;;
6193;SDS011;3130;41.564;23.280;2023-12-14T11:27:09;31.10;;;20.00;;
6193;SDS011;3130;41.564;23.280;2023-12-14T11:29:39;25.37;;;19.13;;
6193;SDS011;3130;41.564;23.280;2023-12-14T11:32:09;31.47;;;19.30;;
6193;SDS011;3130;41.564;23.280;2023-12-14T11:34:38;26.60;;;18.57;;
6193;SDS011;3130;41.564;23.280;2023-12-14T11:37:07;24.90;;;17.97;;
6193;SDS011;3130;41.564;23.280;2023-12-14T11:39:35;25.03;;;17.43;;
6193;SDS011;3130;41.564;23.280;2023-12-14T11:42:04;23.33;;;16.60;;
6193;SDS011;3130;41.564;23.280;2023-12-14T11:44:35;23.13;;;16.57;;
6193;SDS011;3130;41.564;23.280;2023-12-14T11:47:05;20.80;;;14.80;;
6193;SDS011;3130;41.564;23.280;2023-12-14T11:49:34;21.23;;;16.00;;
6193;SDS011;3130;41.564;23.280;2023-12-14T11:52:02;20.33;;;15.57;;
6193;SDS011;3130;41.564;23.280;2023-12-14T11:54:30;23.33;;;15.73;;
6193;SDS011;3130;41.564;23.280;2023-12-14T11:57:00;17.30;;;13.40;;
6193;SDS011;3130;41.564;23.280;2023-12-14T11:59:32;24.17;;;14.73;;
6193;SDS011;3130;41.564;23.280;2023-12-14T12:02:01;17.77;;;13.67;;
6193;SDS011;3130;41.564;23.280;2023-12-14T12:04:30;23.40;;;18.23;;
6193;SDS011;3130;41.564;23.280;2023-12-14T12:07:01;26.83;;;17.40;;
6193;SDS011;3130;41.564;23.280;2023-12-14T12:09:33;30.20;;;20.67;;
6193;SDS011;3130;41.564;23.280;2023-12-14T12:12:01;28.47;;;22.13;;
6193;SDS011;3130;41.564;23.280;2023-12-14T12:14:31;31.93;;;20.60;;
6193;SDS011;3130;41.564;23.280;2023-12-14T12:17:05;27.57;;;19.23;;
6193;SDS011;3130;41.564;23.280;2023-12-14T12:19:36;29.67;;;20.57;;
6193;SDS011;3130;41.564;23.280;2023-12-14T12:22:03;25.30;;;18.43;;
6193;SDS011;3130;41.564;23.280;2023-12-14T12:24:31;21.57;;;16.50;;
6193;SDS011;3130;41.564;23.280;2023-12-14T12:26:58;25.67;;;16.53;;
6193;SDS011;3130;41.564;23.280;2023-12-14T12:29:26;24.00;;;16.30;;
6193;SDS011;3130;41.564;23.280;2023-12-14T12:31:53;24.20;;;15.77;;
6193;SDS011;3130;41.564;23.280;2023-12-14T12:34:21;23.30;;;17.07;;
6193;SDS011;3130;41.564;23.280;2023-12-14T12:37:13;24.13;;;17.90;;
6193;SDS011;3130;41.564;23.280;2023-12-14T12:39:46;23.50;;;17.80;;
6193;SDS011;3130;41.564;23.280;2023-12-14T12:42:20;25.83;;;18.73;;
6193;SDS011;3130;41.564;23.280;2023-12-14T12:44:59;29.33;;;22.20;;
6193;SDS011;3130;41.564;23.280;2023-12-14T12:47:34;28.47;;;21.70;;
6193;SDS011;3130;41.564;23.280;2023-12-14T12:50:15;30.80;;;20.70;;
6193;SDS011;3130;41.564;23.280;2023-12-14T12:52:47;28.00;;;19.97;;
6193;SDS011;3130;41.564;23.280;2023-12-14T12:55:26;24.97;;;18.53;;
6193;SDS011;3130;41.564;23.280;2023-12-14T12:58:08;26.27;;;16.70;;
6193;SDS011;3130;41.564;23.280;2023-12-14T13:00:42;27.83;;;17.53;;
6193;SDS011;3130;41.564;23.280;2023-12-14T13:03:17;26.80;;;18.07;;
6193;SDS011;3130;41.564;23.280;2023-12-14T13:05:45;24.00;;;17.93;;
6193;SDS011;3130;41.564;23.280;2023-12-14T13:08:14;29.03;;;20.70;;
6193;SDS011;3130;41.564;23.280;2023-12-14T13:10:45;26.33;;;19.37;;
6193;SDS011;3130;41.564;23.280;2023-12-14T13:13:17;27.23;;;20.30;;
6193;SDS011;3130;41.564;23.280;2023-12-14T13:15:50;27.70;;;19.80;;
6193;SDS011;3130;41.564;23.280;2023-12-14T13:18:18;27.97;;;19.53;;
6193;SDS011;3130;41.564;23.280;2023-12-14T13:20:47;31.57;;;21.67;;
6193;SDS011;3130;41.564;23.280;2023-12-14T13:23:19;29.47;;;20.90;;
6193;SDS011;3130;41.564;23.280;2023-12-14T13:25:48;33.40;;;23.70;;
6193;SDS011;3130;41.564;23.280;2023-12-14T13:28:15;36.03;;;24.60;;
6193;SDS011;3130;41.564;23.280;2023-12-14T13:30:42;35.73;;;24.27;;
6193;SDS011;3130;41.564;23.280;2023-12-14T13:33:10;30.77;;;22.10;;
6193;SDS011;3130;41.564;23.280;2023-12-14T13:35:38;32.07;;;23.27;;
6193;SDS011;3130;41.564;23.280;2023-12-14T13:38:09;32.77;;;24.00;;
6193;SDS011;3130;41.564;23.280;2023-12-14T13:40:40;35.73;;;24.60;;
6193;SDS011;3130;41.564;23.280;2023-12-14T13:43:08;31.00;;;22.83;;
6193;SDS011;3130;41.564;23.280;2023-12-14T13:45:36;36.20;;;26.53;;
6193;SDS011;3130;41.564;23.280;2023-12-14T13:48:04;40.97;;;27.47;;
6193;SDS011;3130;41.564;23.280;2023-12-14T13:50:33;40.80;;;28.63;;
6193;SDS011;3130;41.564;23.280;2023-12-14T13:53:00;40.13;;;26.20;;
6193;SDS011;3130;41.564;23.280;2023-12-14T13:55:29;33.77;;;24.80;;
6193;SDS011;3130;41.564;23.280;2023-12-14T13:57:57;33.53;;;20.93;;
6193;SDS011;3130;41.564;23.280;2023-12-14T14:00:26;37.83;;;23.53;;
6193;SDS011;3130;41.564;23.280;2023-12-14T14:02:53;37.73;;;23.37;;
6193;SDS011;3130;41.564;23.280;2023-12-14T14:05:21;65.93;;;37.27;;
6193;SDS011;3130;41.564;23.280;2023-12-14T14:07:49;39.33;;;28.10;;
6193;SDS011;3130;41.564;23.280;2023-12-14T14:10:17;37.03;;;26.93;;
6193;SDS011;3130;41.564;23.280;2023-12-14T14:12:44;37.30;;;23.50;;
6193;SDS011;3130;41.564;23.280;2023-12-14T14:15:13;33.67;;;24.57;;
6193;SDS011;3130;41.564;23.280;2023-12-14T14:17:41;34.87;;;24.93;;
6193;SDS011;3130;41.564;23.280;2023-12-14T14:20:09;34.17;;;24.77;;
6193;SDS011;3130;41.564;23.280;2023-12-14T14:22:36;36.87;;;26.90;;
6193;SDS011;3130;41.564;23.280;2023-12-14T14:25:05;44.63;;;27.80;;
6193;SDS011;3130;41.564;23.280;2023-12-14T14:27:33;36.93;;;26.23;;
6193;SDS011;3130;41.564;23.280;2023-12-14T14:30:01;30.03;;;22.53;;
6193;SDS011;3130;41.564;23.280;2023-12-14T14:32:31;26.70;;;18.33;;
6193;SDS011;3130;41.564;23.280;2023-12-14T14:35:00;29.53;;;19.93;;
6193;SDS011;3130;41.564;23.280;2023-12-14T14:37:28;28.97;;;19.97;;
6193;SDS011;3130;41.564;23.280;2023-12-14T14:39:55;34.73;;;22.37;;
6193;SDS011;3130;41.564;23.280;2023-12-14T14:42:21;35.77;;;22.67;;
6193;SDS011;3130;41.564;23.280;2023-12-14T14:44:49;30.67;;;22.47;;
6193;SDS011;3130;41.564;23.280;2023-12-14T14:47:16;33.33;;;22.33;;
6193;SDS011;3130;41.564;23.280;2023-12-14T14:49:45;30.13;;;19.80;;
6193;SDS011;3130;41.564;23.280;2023-12-14T14:52:13;28.60;;;20.27;;
6193;SDS011;3130;41.564;23.280;2023-12-14T14:54:40;28.17;;;19.20;;
6193;SDS011;3130;41.564;23.280;2023-12-14T14:57:07;30.17;;;22.47;;
6193;SDS011;3130;41.564;23.280;2023-12-14T14:59:35;35.00;;;22.43;;
6193;SDS011;3130;41.564;23.280;2023-12-14T15:02:02;38.33;;;21.63;;
6193;SDS011;3130;41.564;23.280;2023-12-14T15:04:29;34.97;;;23.30;;
6193;SDS011;3130;41.564;23.280;2023-12-14T15:06:59;31.83;;;20.77;;
6193;SDS011;3130;41.564;23.280;2023-12-14T15:09:27;40.80;;;25.20;;
6193;SDS011;3130;41.564;23.280;2023-12-14T15:11:55;32.03;;;21.30;;
6193;SDS011;3130;41.564;23.280;2023-12-14T15:14:23;31.83;;;21.93;;
6193;SDS011;3130;41.564;23.280;2023-12-14T15:16:52;32.33;;;22.90;;
6193;SDS011;3130;41.564;23.280;2023-12-14T15:19:20;34.13;;;22.03;;
6193;SDS011;3130;41.564;23.280;2023-12-14T15:21:48;32.33;;;21.67;;
6193;SDS011;3130;41.564;23.280;2023-12-14T15:24:17;37.33;;;25.67;;
6193;SDS011;3130;41.564;23.280;2023-12-14T15:26:47;40.80;;;26.37;;